Главная страница
METAR-TAF:

METAR-TAF

Аэропорты :

Домодедово

Москва-Домодедово, Россия

широта: 55-24N, долгота: 037-54E, высота над уровнем моря: 179 м

Текущие метеонаблюдения

Эта сводка был подготовлена 34 минут назад, в 22:00 UTC
Ветер 2 Узел от восточно-северо-восточный
Температура 12°C
Влажность 82%
Давление 1024 hPa
Видимость 10 км и более
Нет облачности ниже 1500 м, и нет кучево-дождевой облачности

METAR: UUDD 172200Z 06001MPS CAVOK 12/09 Q1024 R88/010095 NOSIG

Время: 01:34 (22:34 UTC)

Прогноз

Эта сводка был подготовлена 2 часа и 38 минут назад, в 19:56 UTC
Прогноз действительный с 17-го 21 UTC до 19-го 03 UTC
Ветер 6 Узел от восточный
Видимость: 8000 м
Вероятность 40% :
временами
С 17-го 22 UTC до 18-го 05 UTC
Видимость: 0300 м
Отдельные облака на высоте 300 фута
туман

TAF: UUDD 171956Z 1721/1903 08003MPS 8000 NSC TX24/1812Z TN10/1801Z PROB40 TEMPO 1722/1805 0300 FG SCT003

Метеонаблюдения и прогнозы для более 4000 аэропортов (сводки METAR и TAF).

Имеющиеся станции представлены на карте желтыми и красными точками.

Чтобы увидеть название станции, наведите на нее мышь.

Затем щелкните, чтобы увидеть метеонаблюдения и метеопрогнозы.

Управление картой: чтобы увеличить масштаб, щелкните зеленые кнопки с черным крестиком; чтобы уменьшить масштаб, щелкните зеленую кнопку с тире; для просмотра соседних карт щелкайте зеленые стрелки.


METAR-TAF: